sensor_id;sensor_type;location;lat;lon;timestamp;temperature;humidity
68867;SHT30;56451;44.804;20.476;2023-02-01T00:00:19;6.58;59.48
68867;SHT30;56451;44.804;20.476;2023-02-01T00:02:45;6.53;59.59
68867;SHT30;56451;44.804;20.476;2023-02-01T00:05:11;6.56;59.47
68867;SHT30;56451;44.804;20.476;2023-02-01T00:07:38;6.60;59.35
68867;SHT30;56451;44.804;20.476;2023-02-01T00:10:05;6.56;59.14
68867;SHT30;56451;44.804;20.476;2023-02-01T00:12:31;6.57;59.15
68867;SHT30;56451;44.804;20.476;2023-02-01T00:14:57;6.60;59.21
68867;SHT30;56451;44.804;20.476;2023-02-01T00:17:23;6.54;59.17
68867;SHT30;56451;44.804;20.476;2023-02-01T00:19:50;6.51;59.14
68867;SHT30;56451;44.804;20.476;2023-02-01T00:22:17;6.56;59.15
68867;SHT30;56451;44.804;20.476;2023-02-01T00:24:43;6.56;59.13
68867;SHT30;56451;44.804;20.476;2023-02-01T00:27:09;6.56;58.96
68867;SHT30;56451;44.804;20.476;2023-02-01T00:29:35;6.64;58.88
68867;SHT30;56451;44.804;20.476;2023-02-01T00:32:01;6.63;58.87
68867;SHT30;56451;44.804;20.476;2023-02-01T00:34:27;6.61;58.78
68867;SHT30;56451;44.804;20.476;2023-02-01T00:36:53;6.63;58.62
68867;SHT30;56451;44.804;20.476;2023-02-01T00:39:20;6.61;58.76
68867;SHT30;56451;44.804;20.476;2023-02-01T00:41:46;6.68;58.66
68867;SHT30;56451;44.804;20.476;2023-02-01T00:44:12;6.67;58.62
68867;SHT30;56451;44.804;20.476;2023-02-01T00:46:38;6.63;58.68
68867;SHT30;56451;44.804;20.476;2023-02-01T00:49:03;6.61;58.78
68867;SHT30;56451;44.804;20.476;2023-02-01T00:51:30;6.57;58.89
68867;SHT30;56451;44.804;20.476;2023-02-01T00:53:56;6.58;58.97
68867;SHT30;56451;44.804;20.476;2023-02-01T00:56:22;6.58;59.06
68867;SHT30;56451;44.804;20.476;2023-02-01T00:58:49;6.56;59.16
68867;SHT30;56451;44.804;20.476;2023-02-01T01:01:16;6.53;59.16
68867;SHT30;56451;44.804;20.476;2023-02-01T01:03:46;6.56;59.27
68867;SHT30;56451;44.804;20.476;2023-02-01T01:06:14;6.56;59.31
68867;SHT30;56451;44.804;20.476;2023-02-01T01:08:41;6.58;59.19
68867;SHT30;56451;44.804;20.476;2023-02-01T01:11:10;6.57;58.99
68867;SHT30;56451;44.804;20.476;2023-02-01T01:13:37;6.51;59.06
68867;SHT30;56451;44.804;20.476;2023-02-01T01:16:05;6.57;59.23
68867;SHT30;56451;44.804;20.476;2023-02-01T01:18:32;6.60;59.13
68867;SHT30;56451;44.804;20.476;2023-02-01T01:20:59;6.63;59.02
68867;SHT30;56451;44.804;20.476;2023-02-01T01:23:26;6.61;58.86
68867;SHT30;56451;44.804;20.476;2023-02-01T01:25:52;6.64;58.56
68867;SHT30;56451;44.804;20.476;2023-02-01T01:28:19;6.68;58.32
68867;SHT30;56451;44.804;20.476;2023-02-01T01:30:45;6.67;57.98
68867;SHT30;56451;44.804;20.476;2023-02-01T01:33:12;6.73;57.91
68867;SHT30;56451;44.804;20.476;2023-02-01T01:35:38;6.70;57.59
68867;SHT30;56451;44.804;20.476;2023-02-01T01:38:04;6.67;57.63
68867;SHT30;56451;44.804;20.476;2023-02-01T01:40:30;6.68;57.56
68867;SHT30;56451;44.804;20.476;2023-02-01T01:42:57;6.67;57.58
68867;SHT30;56451;44.804;20.476;2023-02-01T01:45:27;6.68;57.68
68867;SHT30;56451;44.804;20.476;2023-02-01T01:48:02;6.70;57.69
68867;SHT30;56451;44.804;20.476;2023-02-01T01:50:40;6.73;57.46
68867;SHT30;56451;44.804;20.476;2023-02-01T01:53:11;6.67;57.38
68867;SHT30;56451;44.804;20.476;2023-02-01T01:55:41;6.74;57.53
68867;SHT30;56451;44.804;20.476;2023-02-01T01:58:13;6.74;57.40
68867;SHT30;56451;44.804;20.476;2023-02-01T02:00:40;6.77;57.50
68867;SHT30;56451;44.804;20.476;2023-02-01T02:03:40;6.77;57.39
68867;SHT30;56451;44.804;20.476;2023-02-01T02:06:11;6.77;57.28
68867;SHT30;56451;44.804;20.476;2023-02-01T02:08:39;6.78;57.50
68867;SHT30;56451;44.804;20.476;2023-02-01T02:11:07;6.81;57.56
68867;SHT30;56451;44.804;20.476;2023-02-01T02:13:40;6.80;57.28
68867;SHT30;56451;44.804;20.476;2023-02-01T02:16:33;6.84;57.29
68867;SHT30;56451;44.804;20.476;2023-02-01T02:19:25;6.84;57.03
68867;SHT30;56451;44.804;20.476;2023-02-01T02:22:25;6.83;56.81
68867;SHT30;56451;44.804;20.476;2023-02-01T02:24:58;6.91;56.49
68867;SHT30;56451;44.804;20.476;2023-02-01T02:32:47;6.95;56.67
68867;SHT30;56451;44.804;20.476;2023-02-01T02:35:45;6.95;56.64
68867;SHT30;56451;44.804;20.476;2023-02-01T02:40:48;6.96;56.72
68867;SHT30;56451;44.804;20.476;2023-02-01T02:49:11;7.04;56.32
68867;SHT30;56451;44.804;20.476;2023-02-01T02:51:41;7.04;56.16
68867;SHT30;56451;44.804;20.476;2023-02-01T02:54:31;7.06;55.86
68867;SHT30;56451;44.804;20.476;2023-02-01T02:57:22;7.09;55.89
68867;SHT30;56451;44.804;20.476;2023-02-01T03:00:19;7.11;55.72
68867;SHT30;56451;44.804;20.476;2023-02-01T03:03:05;7.11;55.87
68867;SHT30;56451;44.804;20.476;2023-02-01T03:05:50;7.15;55.56
68867;SHT30;56451;44.804;20.476;2023-02-01T03:08:23;7.15;55.54
68867;SHT30;56451;44.804;20.476;2023-02-01T03:11:04;7.16;55.52
68867;SHT30;56451;44.804;20.476;2023-02-01T03:13:51;7.23;55.42
68867;SHT30;56451;44.804;20.476;2023-02-01T03:16:39;7.22;55.28
68867;SHT30;56451;44.804;20.476;2023-02-01T03:19:16;7.23;55.07
68867;SHT30;56451;44.804;20.476;2023-02-01T03:21:48;7.25;55.05
68867;SHT30;56451;44.804;20.476;2023-02-01T03:24:26;7.26;55.02
68867;SHT30;56451;44.804;20.476;2023-02-01T03:32:46;7.30;54.58
68867;SHT30;56451;44.804;20.476;2023-02-01T03:35:33;7.32;54.38
68867;SHT30;56451;44.804;20.476;2023-02-01T03:40:39;7.33;54.41
68867;SHT30;56451;44.804;20.476;2023-02-01T03:43:12;7.33;54.51
68867;SHT30;56451;44.804;20.476;2023-02-01T03:45:43;7.34;54.56
68867;SHT30;56451;44.804;20.476;2023-02-01T03:48:13;7.34;54.58
68867;SHT30;56451;44.804;20.476;2023-02-01T03:50:44;7.32;54.55
68867;SHT30;56451;44.804;20.476;2023-02-01T03:53:16;7.34;54.65
68867;SHT30;56451;44.804;20.476;2023-02-01T03:55:44;7.33;54.67
68867;SHT30;56451;44.804;20.476;2023-02-01T03:58:18;7.34;54.61
68867;SHT30;56451;44.804;20.476;2023-02-01T04:00:56;7.34;54.67
68867;SHT30;56451;44.804;20.476;2023-02-01T04:03:23;7.36;54.55
68867;SHT30;56451;44.804;20.476;2023-02-01T04:05:49;7.40;54.38
68867;SHT30;56451;44.804;20.476;2023-02-01T04:08:15;7.40;54.19
68867;SHT30;56451;44.804;20.476;2023-02-01T04:10:41;7.40;54.01
68867;SHT30;56451;44.804;20.476;2023-02-01T04:13:07;7.43;53.70
68867;SHT30;56451;44.804;20.476;2023-02-01T04:15:33;7.40;53.41
68867;SHT30;56451;44.804;20.476;2023-02-01T04:18:00;7.39;53.43
68867;SHT30;56451;44.804;20.476;2023-02-01T04:20:26;7.37;53.47
68867;SHT30;56451;44.804;20.476;2023-02-01T04:22:52;7.40;53.39
68867;SHT30;56451;44.804;20.476;2023-02-01T04:25:18;7.40;53.43
68867;SHT30;56451;44.804;20.476;2023-02-01T04:27:46;7.37;53.07
68867;SHT30;56451;44.804;20.476;2023-02-01T04:30:12;7.36;52.54
68867;SHT30;56451;44.804;20.476;2023-02-01T04:32:38;7.39;52.07
68867;SHT30;56451;44.804;20.476;2023-02-01T04:35:05;7.40;51.78
68867;SHT30;56451;44.804;20.476;2023-02-01T04:37:31;7.36;51.63
68867;SHT30;56451;44.804;20.476;2023-02-01T04:39:57;7.40;51.49
68867;SHT30;56451;44.804;20.476;2023-02-01T04:42:23;7.40;51.10
68867;SHT30;56451;44.804;20.476;2023-02-01T04:44:49;7.33;50.78
68867;SHT30;56451;44.804;20.476;2023-02-01T04:47:14;7.40;50.64
68867;SHT30;56451;44.804;20.476;2023-02-01T04:49:41;7.42;50.47
68867;SHT30;56451;44.804;20.476;2023-02-01T04:52:07;7.43;50.58
68867;SHT30;56451;44.804;20.476;2023-02-01T04:54:33;7.47;50.50
68867;SHT30;56451;44.804;20.476;2023-02-01T04:56:59;7.46;50.38
68867;SHT30;56451;44.804;20.476;2023-02-01T04:59:26;7.46;50.45
68867;SHT30;56451;44.804;20.476;2023-02-01T05:01:53;7.44;50.25
68867;SHT30;56451;44.804;20.476;2023-02-01T05:04:19;7.46;50.39
68867;SHT30;56451;44.804;20.476;2023-02-01T05:06:45;7.50;50.36
68867;SHT30;56451;44.804;20.476;2023-02-01T05:09:11;7.50;50.24
68867;SHT30;56451;44.804;20.476;2023-02-01T05:11:37;7.46;50.20
68867;SHT30;56451;44.804;20.476;2023-02-01T05:14:21;7.43;50.14
68867;SHT30;56451;44.804;20.476;2023-02-01T05:16:47;7.46;50.19
68867;SHT30;56451;44.804;20.476;2023-02-01T05:19:13;7.49;50.02
68867;SHT30;56451;44.804;20.476;2023-02-01T05:21:39;7.47;50.06
68867;SHT30;56451;44.804;20.476;2023-02-01T05:24:05;7.44;49.77
68867;SHT30;56451;44.804;20.476;2023-02-01T05:26:46;7.46;49.83
68867;SHT30;56451;44.804;20.476;2023-02-01T05:29:13;7.42;49.87
68867;SHT30;56451;44.804;20.476;2023-02-01T05:31:39;7.42;49.47
68867;SHT30;56451;44.804;20.476;2023-02-01T05:34:05;7.44;49.39
68867;SHT30;56451;44.804;20.476;2023-02-01T05:36:31;7.36;49.11
68867;SHT30;56451;44.804;20.476;2023-02-01T05:38:57;7.34;48.96
68867;SHT30;56451;44.804;20.476;2023-02-01T05:41:24;7.39;49.20
68867;SHT30;56451;44.804;20.476;2023-02-01T05:43:50;7.40;49.10
68867;SHT30;56451;44.804;20.476;2023-02-01T05:46:16;7.46;49.00
68867;SHT30;56451;44.804;20.476;2023-02-01T05:48:42;7.50;48.78
68867;SHT30;56451;44.804;20.476;2023-02-01T05:51:09;7.52;48.81
68867;SHT30;56451;44.804;20.476;2023-02-01T05:53:35;7.49;48.62
68867;SHT30;56451;44.804;20.476;2023-02-01T05:56:01;7.49;48.40
68867;SHT30;56451;44.804;20.476;2023-02-01T05:58:27;7.53;48.33
68867;SHT30;56451;44.804;20.476;2023-02-01T06:00:53;7.57;47.91
68867;SHT30;56451;44.804;20.476;2023-02-01T06:03:19;7.57;47.97
68867;SHT30;56451;44.804;20.476;2023-02-01T06:05:45;7.56;47.88
68867;SHT30;56451;44.804;20.476;2023-02-01T06:08:11;7.63;47.46
68867;SHT30;56451;44.804;20.476;2023-02-01T06:10:38;7.63;47.41
68867;SHT30;56451;44.804;20.476;2023-02-01T06:13:03;7.62;47.42
68867;SHT30;56451;44.804;20.476;2023-02-01T06:15:30;7.57;47.48
68867;SHT30;56451;44.804;20.476;2023-02-01T06:17:56;7.57;47.64
68867;SHT30;56451;44.804;20.476;2023-02-01T06:20:23;7.54;47.54
68867;SHT30;56451;44.804;20.476;2023-02-01T06:22:48;7.54;47.74
68867;SHT30;56451;44.804;20.476;2023-02-01T06:25:14;7.53;47.85
68867;SHT30;56451;44.804;20.476;2023-02-01T06:27:42;7.46;48.15
68867;SHT30;56451;44.804;20.476;2023-02-01T06:30:11;7.47;48.18
68867;SHT30;56451;44.804;20.476;2023-02-01T06:32:40;7.49;48.32
68867;SHT30;56451;44.804;20.476;2023-02-01T06:35:09;7.42;48.29
68867;SHT30;56451;44.804;20.476;2023-02-01T06:37:41;7.34;48.47
68867;SHT30;56451;44.804;20.476;2023-02-01T06:40:08;7.30;48.70
68867;SHT30;56451;44.804;20.476;2023-02-01T06:42:34;7.36;48.67
68867;SHT30;56451;44.804;20.476;2023-02-01T06:45:00;7.30;49.03
68867;SHT30;56451;44.804;20.476;2023-02-01T06:47:26;7.29;49.10
68867;SHT30;56451;44.804;20.476;2023-02-01T06:49:52;7.29;49.51
68867;SHT30;56451;44.804;20.476;2023-02-01T06:52:18;7.27;49.42
68867;SHT30;56451;44.804;20.476;2023-02-01T06:54:43;7.25;49.57
68867;SHT30;56451;44.804;20.476;2023-02-01T06:57:09;7.15;49.97
68867;SHT30;56451;44.804;20.476;2023-02-01T06:59:35;7.18;50.05
68867;SHT30;56451;44.804;20.476;2023-02-01T07:02:01;7.11;50.31
68867;SHT30;56451;44.804;20.476;2023-02-01T07:04:26;7.09;50.12
68867;SHT30;56451;44.804;20.476;2023-02-01T07:06:52;7.05;50.40
68867;SHT30;56451;44.804;20.476;2023-02-01T07:09:18;6.94;50.69
68867;SHT30;56451;44.804;20.476;2023-02-01T07:11:44;6.92;51.06
68867;SHT30;56451;44.804;20.476;2023-02-01T07:14:10;6.91;51.13
68867;SHT30;56451;44.804;20.476;2023-02-01T07:16:36;6.89;51.33
68867;SHT30;56451;44.804;20.476;2023-02-01T07:19:02;6.85;51.65
68867;SHT30;56451;44.804;20.476;2023-02-01T07:21:28;6.84;51.86
68867;SHT30;56451;44.804;20.476;2023-02-01T07:23:55;6.83;51.71
68867;SHT30;56451;44.804;20.476;2023-02-01T07:26:21;6.81;51.71
68867;SHT30;56451;44.804;20.476;2023-02-01T07:28:47;6.77;52.00
68867;SHT30;56451;44.804;20.476;2023-02-01T07:31:15;6.77;52.23
68867;SHT30;56451;44.804;20.476;2023-02-01T07:33:43;6.78;52.30
68867;SHT30;56451;44.804;20.476;2023-02-01T07:36:14;6.81;52.44
68867;SHT30;56451;44.804;20.476;2023-02-01T07:38:40;6.80;52.31
68867;SHT30;56451;44.804;20.476;2023-02-01T07:41:07;6.80;52.53
68867;SHT30;56451;44.804;20.476;2023-02-01T07:43:34;6.81;52.63
68867;SHT30;56451;44.804;20.476;2023-02-01T07:46:01;6.83;52.30
68867;SHT30;56451;44.804;20.476;2023-02-01T07:48:27;6.87;52.40
68867;SHT30;56451;44.804;20.476;2023-02-01T07:51:05;6.88;52.27
68867;SHT30;56451;44.804;20.476;2023-02-01T07:53:32;6.87;52.35
68867;SHT30;56451;44.804;20.476;2023-02-01T07:55:59;6.95;52.27
68867;SHT30;56451;44.804;20.476;2023-02-01T07:58:26;6.98;52.45
68867;SHT30;56451;44.804;20.476;2023-02-01T08:00:53;7.05;52.10
68867;SHT30;56451;44.804;20.476;2023-02-01T08:03:38;7.09;51.96
68867;SHT30;56451;44.804;20.476;2023-02-01T08:06:04;7.09;51.84
68867;SHT30;56451;44.804;20.476;2023-02-01T08:08:30;7.11;51.75
68867;SHT30;56451;44.804;20.476;2023-02-01T08:10:58;7.12;51.85
68867;SHT30;56451;44.804;20.476;2023-02-01T08:13:24;7.15;51.92
68867;SHT30;56451;44.804;20.476;2023-02-01T08:15:50;7.15;51.90
68867;SHT30;56451;44.804;20.476;2023-02-01T08:18:16;7.29;51.57
68867;SHT30;56451;44.804;20.476;2023-02-01T08:20:44;7.34;51.56
68867;SHT30;56451;44.804;20.476;2023-02-01T08:23:11;7.42;51.60
68867;SHT30;56451;44.804;20.476;2023-02-01T08:25:37;7.47;51.26
68867;SHT30;56451;44.804;20.476;2023-02-01T08:28:06;7.49;51.07
68867;SHT30;56451;44.804;20.476;2023-02-01T08:30:32;7.50;51.09
68867;SHT30;56451;44.804;20.476;2023-02-01T08:32:58;7.60;50.95
68867;SHT30;56451;44.804;20.476;2023-02-01T08:35:24;7.64;50.75
68867;SHT30;56451;44.804;20.476;2023-02-01T08:37:51;7.53;51.13
68867;SHT30;56451;44.804;20.476;2023-02-01T08:40:17;7.57;51.35
68867;SHT30;56451;44.804;20.476;2023-02-01T08:42:43;7.64;50.97
68867;SHT30;56451;44.804;20.476;2023-02-01T08:45:25;7.59;51.31
68867;SHT30;56451;44.804;20.476;2023-02-01T08:47:55;7.53;51.79
68867;SHT30;56451;44.804;20.476;2023-02-01T08:50:22;7.57;51.60
68867;SHT30;56451;44.804;20.476;2023-02-01T08:52:49;7.56;51.69
68867;SHT30;56451;44.804;20.476;2023-02-01T08:55:15;7.63;51.82
68867;SHT30;56451;44.804;20.476;2023-02-01T08:57:41;7.64;51.72
68867;SHT30;56451;44.804;20.476;2023-02-01T09:00:12;7.66;51.91
68867;SHT30;56451;44.804;20.476;2023-02-01T09:02:39;7.67;51.81
68867;SHT30;56451;44.804;20.476;2023-02-01T09:05:05;7.75;51.88
68867;SHT30;56451;44.804;20.476;2023-02-01T09:07:32;7.74;51.61
68867;SHT30;56451;44.804;20.476;2023-02-01T09:09:59;7.75;51.80
68867;SHT30;56451;44.804;20.476;2023-02-01T09:12:31;7.78;51.79
68867;SHT30;56451;44.804;20.476;2023-02-01T09:14:58;7.83;51.65
68867;SHT30;56451;44.804;20.476;2023-02-01T09:17:28;7.92;51.67
68867;SHT30;56451;44.804;20.476;2023-02-01T09:19:55;7.92;51.26
68867;SHT30;56451;44.804;20.476;2023-02-01T09:22:21;8.04;51.40
68867;SHT30;56451;44.804;20.476;2023-02-01T09:24:47;8.02;51.31
68867;SHT30;56451;44.804;20.476;2023-02-01T09:27:13;8.06;50.99
68867;SHT30;56451;44.804;20.476;2023-02-01T09:29:39;8.08;51.41
68867;SHT30;56451;44.804;20.476;2023-02-01T09:32:05;8.08;51.53
68867;SHT30;56451;44.804;20.476;2023-02-01T09:34:32;8.11;51.59
68867;SHT30;56451;44.804;20.476;2023-02-01T09:36:59;8.18;51.95
68867;SHT30;56451;44.804;20.476;2023-02-01T09:39:25;8.28;51.95
68867;SHT30;56451;44.804;20.476;2023-02-01T09:47:22;8.39;52.61
68867;SHT30;56451;44.804;20.476;2023-02-01T09:52:25;8.46;51.65
68867;SHT30;56451;44.804;20.476;2023-02-01T09:54:57;8.57;51.44
68867;SHT30;56451;44.804;20.476;2023-02-01T10:00:04;8.67;50.98
68867;SHT30;56451;44.804;20.476;2023-02-01T10:02:39;8.71;51.25
68867;SHT30;56451;44.804;20.476;2023-02-01T10:05:05;8.81;51.04
68867;SHT30;56451;44.804;20.476;2023-02-01T10:07:40;8.87;50.91
68867;SHT30;56451;44.804;20.476;2023-02-01T10:10:28;8.98;51.26
68867;SHT30;56451;44.804;20.476;2023-02-01T10:21:35;9.25;50.19
68867;SHT30;56451;44.804;20.476;2023-02-01T10:26:37;9.39;49.96
68867;SHT30;56451;44.804;20.476;2023-02-01T10:29:12;9.42;49.73
68867;SHT30;56451;44.804;20.476;2023-02-01T10:31:41;9.49;49.53
68867;SHT30;56451;44.804;20.476;2023-02-01T10:36:53;9.59;49.60
68867;SHT30;56451;44.804;20.476;2023-02-01T10:39:20;9.65;49.19
68867;SHT30;56451;44.804;20.476;2023-02-01T10:41:47;9.70;48.97
68867;SHT30;56451;44.804;20.476;2023-02-01T10:44:15;9.76;49.15
68867;SHT30;56451;44.804;20.476;2023-02-01T10:46:42;9.79;48.84
68867;SHT30;56451;44.804;20.476;2023-02-01T10:49:16;9.85;48.69
68867;SHT30;56451;44.804;20.476;2023-02-01T10:51:49;9.90;48.50
68867;SHT30;56451;44.804;20.476;2023-02-01T10:54:19;9.94;48.63
68867;SHT30;56451;44.804;20.476;2023-02-01T10:56:46;9.97;48.53
68867;SHT30;56451;44.804;20.476;2023-02-01T10:59:24;9.98;48.65
68867;SHT30;56451;44.804;20.476;2023-02-01T11:01:58;10.00;48.48
68867;SHT30;56451;44.804;20.476;2023-02-01T11:04:26;10.04;48.53
68867;SHT30;56451;44.804;20.476;2023-02-01T11:07:13;10.08;48.58
68867;SHT30;56451;44.804;20.476;2023-02-01T11:09:41;10.11;48.54
68867;SHT30;56451;44.804;20.476;2023-02-01T11:12:37;10.17;48.73
68867;SHT30;56451;44.804;20.476;2023-02-01T11:15:14;10.22;48.26
68867;SHT30;56451;44.804;20.476;2023-02-01T11:17:45;10.30;48.02
68867;SHT30;56451;44.804;20.476;2023-02-01T11:22:57;10.20;47.68
68867;SHT30;56451;44.804;20.476;2023-02-01T11:25:23;10.14;47.83
68867;SHT30;56451;44.804;20.476;2023-02-01T11:27:51;10.07;48.04
68867;SHT30;56451;44.804;20.476;2023-02-01T11:30:32;10.04;46.80
68867;SHT30;56451;44.804;20.476;2023-02-01T11:33:00;9.98;47.04
68867;SHT30;56451;44.804;20.476;2023-02-01T11:35:28;10.03;46.88
68867;SHT30;56451;44.804;20.476;2023-02-01T11:37:56;10.04;47.00
68867;SHT30;56451;44.804;20.476;2023-02-01T11:43:01;10.03;46.71
68867;SHT30;56451;44.804;20.476;2023-02-01T11:45:33;10.01;47.28
68867;SHT30;56451;44.804;20.476;2023-02-01T11:48:00;10.06;46.00
68867;SHT30;56451;44.804;20.476;2023-02-01T11:50:46;10.14;46.09
68867;SHT30;56451;44.804;20.476;2023-02-01T11:53:36;10.18;46.43
68867;SHT30;56451;44.804;20.476;2023-02-01T11:56:36;10.25;45.91
68867;SHT30;56451;44.804;20.476;2023-02-01T11:59:18;10.16;45.57
68867;SHT30;56451;44.804;20.476;2023-02-01T12:02:16;10.08;45.41
68867;SHT30;56451;44.804;20.476;2023-02-01T12:05:08;10.14;45.28
68867;SHT30;56451;44.804;20.476;2023-02-01T12:13:00;10.27;45.66
68867;SHT30;56451;44.804;20.476;2023-02-01T12:15:38;10.27;45.86
68867;SHT30;56451;44.804;20.476;2023-02-01T12:20:52;10.37;46.16
68867;SHT30;56451;44.804;20.476;2023-02-01T12:26:31;10.52;43.87
68867;SHT30;56451;44.804;20.476;2023-02-01T12:32:11;10.68;43.71
68867;SHT30;56451;44.804;20.476;2023-02-01T12:42:59;10.69;42.41
68867;SHT30;56451;44.804;20.476;2023-02-01T12:45:31;10.71;42.14
68867;SHT30;56451;44.804;20.476;2023-02-01T12:48:57;10.77;41.80
68867;SHT30;56451;44.804;20.476;2023-02-01T12:51:07;10.73;42.35
68867;SHT30;56451;44.804;20.476;2023-02-01T12:56:14;10.75;42.03
68867;SHT30;56451;44.804;20.476;2023-02-01T12:58:45;10.82;42.30
68867;SHT30;56451;44.804;20.476;2023-02-01T13:01:22;10.86;42.20
68867;SHT30;56451;44.804;20.476;2023-02-01T13:06:36;10.92;41.96
68867;SHT30;56451;44.804;20.476;2023-02-01T13:11:34;10.73;40.32
68867;SHT30;56451;44.804;20.476;2023-02-01T13:14:23;10.76;41.11
68867;SHT30;56451;44.804;20.476;2023-02-01T13:16:56;10.83;41.07
68867;SHT30;56451;44.804;20.476;2023-02-01T13:22:17;10.86;40.02
68867;SHT30;56451;44.804;20.476;2023-02-01T13:24:53;10.89;40.40
68867;SHT30;56451;44.804;20.476;2023-02-01T13:27:19;10.89;40.10
68867;SHT30;56451;44.804;20.476;2023-02-01T13:30:01;10.89;40.14
68867;SHT30;56451;44.804;20.476;2023-02-01T13:32:51;10.88;40.49
68867;SHT30;56451;44.804;20.476;2023-02-01T13:43:04;11.16;40.34
68867;SHT30;56451;44.804;20.476;2023-02-01T13:45:34;11.27;40.43
68867;SHT30;56451;44.804;20.476;2023-02-01T13:48:04;11.23;40.44
68867;SHT30;56451;44.804;20.476;2023-02-01T13:50:33;11.33;40.18
68867;SHT30;56451;44.804;20.476;2023-02-01T13:53:11;11.35;40.27
68867;SHT30;56451;44.804;20.476;2023-02-01T13:55:46;11.47;40.19
68867;SHT30;56451;44.804;20.476;2023-02-01T14:00:43;11.61;40.07
68867;SHT30;56451;44.804;20.476;2023-02-01T14:03:13;11.65;40.00
68867;SHT30;56451;44.804;20.476;2023-02-01T14:08:12;11.83;39.79
68867;SHT30;56451;44.804;20.476;2023-02-01T14:16:19;11.92;39.95
68867;SHT30;56451;44.804;20.476;2023-02-01T14:26:44;12.00;39.44
68867;SHT30;56451;44.804;20.476;2023-02-01T14:34:38;12.05;39.57
68867;SHT30;56451;44.804;20.476;2023-02-01T14:37:31;12.02;38.64
68867;SHT30;56451;44.804;20.476;2023-02-01T14:40:00;12.03;38.71
68867;SHT30;56451;44.804;20.476;2023-02-01T14:42:46;12.03;39.12
68867;SHT30;56451;44.804;20.476;2023-02-01T14:53:17;11.95;39.06
68867;SHT30;56451;44.804;20.476;2023-02-01T14:55:59;11.91;39.48
68867;SHT30;56451;44.804;20.476;2023-02-01T14:58:44;11.86;39.57
68867;SHT30;56451;44.804;20.476;2023-02-01T15:01:18;11.85;39.82
68867;SHT30;56451;44.804;20.476;2023-02-01T15:03:55;11.82;39.86
68867;SHT30;56451;44.804;20.476;2023-02-01T15:09:08;11.79;39.37
68867;SHT30;56451;44.804;20.476;2023-02-01T15:14:19;11.78;39.46
68867;SHT30;56451;44.804;20.476;2023-02-01T15:16:45;11.72;39.41
68867;SHT30;56451;44.804;20.476;2023-02-01T15:19:24;11.70;39.45
68867;SHT30;56451;44.804;20.476;2023-02-01T15:21:56;11.65;39.85
68867;SHT30;56451;44.804;20.476;2023-02-01T15:24:25;11.65;40.27
68867;SHT30;56451;44.804;20.476;2023-02-01T15:26:53;11.65;40.09
68867;SHT30;56451;44.804;20.476;2023-02-01T15:29:29;11.61;40.64
68867;SHT30;56451;44.804;20.476;2023-02-01T15:31:58;11.62;40.22
68867;SHT30;56451;44.804;20.476;2023-02-01T15:34:44;11.65;39.94
68867;SHT30;56451;44.804;20.476;2023-02-01T15:37:15;11.61;39.52
68867;SHT30;56451;44.804;20.476;2023-02-01T15:40:20;11.54;39.85
68867;SHT30;56451;44.804;20.476;2023-02-01T15:42:58;11.50;40.02
68867;SHT30;56451;44.804;20.476;2023-02-01T15:45:27;11.47;40.28
68867;SHT30;56451;44.804;20.476;2023-02-01T15:47:56;11.45;40.45
68867;SHT30;56451;44.804;20.476;2023-02-01T15:50:23;11.44;40.54
68867;SHT30;56451;44.804;20.476;2023-02-01T15:52:52;11.43;40.50
68867;SHT30;56451;44.804;20.476;2023-02-01T15:55:38;11.41;40.69
68867;SHT30;56451;44.804;20.476;2023-02-01T15:58:17;11.34;41.00
68867;SHT30;56451;44.804;20.476;2023-02-01T16:00:49;11.31;41.10
68867;SHT30;56451;44.804;20.476;2023-02-01T16:09:01;11.26;41.30
68867;SHT30;56451;44.804;20.476;2023-02-01T16:11:39;11.22;41.43
68867;SHT30;56451;44.804;20.476;2023-02-01T16:14:06;11.16;41.48
68867;SHT30;56451;44.804;20.476;2023-02-01T16:16:32;11.16;41.53
68867;SHT30;56451;44.804;20.476;2023-02-01T16:18:58;11.10;41.68
68867;SHT30;56451;44.804;20.476;2023-02-01T16:21:24;11.09;41.68
68867;SHT30;56451;44.804;20.476;2023-02-01T16:23:51;11.09;41.93
68867;SHT30;56451;44.804;20.476;2023-02-01T16:26:19;11.06;41.83
68867;SHT30;56451;44.804;20.476;2023-02-01T16:28:45;11.06;42.03
68867;SHT30;56451;44.804;20.476;2023-02-01T16:31:13;11.03;42.12
68867;SHT30;56451;44.804;20.476;2023-02-01T16:33:53;11.00;42.12
68867;SHT30;56451;44.804;20.476;2023-02-01T16:36:20;10.96;42.20
68867;SHT30;56451;44.804;20.476;2023-02-01T16:38:46;10.92;42.45
68867;SHT30;56451;44.804;20.476;2023-02-01T16:41:17;10.92;42.60
68867;SHT30;56451;44.804;20.476;2023-02-01T16:43:44;10.86;42.44
68867;SHT30;56451;44.804;20.476;2023-02-01T16:46:20;10.85;42.56
68867;SHT30;56451;44.804;20.476;2023-02-01T16:48:52;10.86;42.60
68867;SHT30;56451;44.804;20.476;2023-02-01T16:51:18;10.83;42.64
68867;SHT30;56451;44.804;20.476;2023-02-01T16:53:45;10.82;42.82
68867;SHT30;56451;44.804;20.476;2023-02-01T16:56:18;10.80;42.74
68867;SHT30;56451;44.804;20.476;2023-02-01T16:58:45;10.80;42.75
68867;SHT30;56451;44.804;20.476;2023-02-01T17:01:12;10.75;42.88
68867;SHT30;56451;44.804;20.476;2023-02-01T17:03:40;10.73;42.92
68867;SHT30;56451;44.804;20.476;2023-02-01T17:06:08;10.73;42.94
68867;SHT30;56451;44.804;20.476;2023-02-01T17:08:38;10.72;42.92
68867;SHT30;56451;44.804;20.476;2023-02-01T17:11:06;10.75;43.02
68867;SHT30;56451;44.804;20.476;2023-02-01T17:13:33;10.72;43.04
68867;SHT30;56451;44.804;20.476;2023-02-01T17:16:01;10.68;43.11
68867;SHT30;56451;44.804;20.476;2023-02-01T17:18:33;10.68;43.22
68867;SHT30;56451;44.804;20.476;2023-02-01T17:21:01;10.65;43.13
68867;SHT30;56451;44.804;20.476;2023-02-01T17:23:29;10.69;42.95
68867;SHT30;56451;44.804;20.476;2023-02-01T17:25:56;10.62;43.02
68867;SHT30;56451;44.804;20.476;2023-02-01T17:28:22;10.65;42.76
68867;SHT30;56451;44.804;20.476;2023-02-01T17:30:48;10.64;42.92
68867;SHT30;56451;44.804;20.476;2023-02-01T17:33:24;10.64;42.99
68867;SHT30;56451;44.804;20.476;2023-02-01T17:35:53;10.61;43.14
68867;SHT30;56451;44.804;20.476;2023-02-01T17:38:19;10.58;43.33
68867;SHT30;56451;44.804;20.476;2023-02-01T17:40:45;10.58;42.86
68867;SHT30;56451;44.804;20.476;2023-02-01T17:43:13;10.65;42.56
68867;SHT30;56451;44.804;20.476;2023-02-01T17:45:46;10.58;43.16
68867;SHT30;56451;44.804;20.476;2023-02-01T17:48:17;10.45;43.18
68867;SHT30;56451;44.804;20.476;2023-02-01T17:50:43;10.35;43.62
68867;SHT30;56451;44.804;20.476;2023-02-01T17:53:10;10.14;44.03
68867;SHT30;56451;44.804;20.476;2023-02-01T17:55:39;9.93;44.44
68867;SHT30;56451;44.804;20.476;2023-02-01T17:58:05;9.72;45.29
68867;SHT30;56451;44.804;20.476;2023-02-01T18:00:32;9.50;46.15